createdAt,value
2019-03-01T00:01:15.885Z,9.57
2019-03-01T00:03:44.754Z,9.40
2019-03-01T00:06:28.127Z,8.67
2019-03-01T00:09:28.839Z,9.20
2019-03-01T00:12:06.354Z,8.13
2019-03-01T00:14:57.419Z,8.53
2019-03-01T00:17:59.171Z,10.57
2019-03-01T00:20:50.013Z,10.57
2019-03-01T00:23:39.440Z,11.00
2019-03-01T00:26:20.151Z,10.03
2019-03-01T00:28:57.559Z,10.40
2019-03-01T00:31:51.660Z,10.57
2019-03-01T00:34:23.295Z,9.87
2019-03-01T00:37:12.987Z,11.13
2019-03-01T00:39:44.567Z,10.53
2019-03-01T00:42:34.247Z,10.83
2019-03-01T00:45:02.831Z,10.07
2019-03-01T00:47:31.298Z,11.10
2019-03-01T00:49:59.770Z,9.33
2019-03-01T00:52:28.348Z,10.40
2019-03-01T00:54:56.881Z,9.30
2019-03-01T00:57:25.379Z,9.20
2019-03-01T00:59:53.839Z,9.17
2019-03-01T01:02:22.303Z,8.40
2019-03-01T01:04:50.795Z,8.87
2019-03-01T01:07:19.471Z,10.00
2019-03-01T01:09:48.047Z,8.97
2019-03-01T01:12:16.587Z,8.80
2019-03-01T01:14:45.115Z,8.43
2019-03-01T01:17:13.602Z,8.70
2019-03-01T01:19:42.068Z,8.53
2019-03-01T01:22:10.638Z,8.20
2019-03-01T01:24:39.099Z,8.13
2019-03-01T01:27:07.683Z,7.73
2019-03-01T01:29:36.167Z,7.80
2019-03-01T01:32:04.648Z,7.03
2019-03-01T01:34:33.190Z,7.17
2019-03-01T01:37:01.755Z,7.27
2019-03-01T01:39:30.218Z,7.53
2019-03-01T01:41:58.687Z,7.27
2019-03-01T01:44:27.207Z,6.97
2019-03-01T01:46:55.674Z,6.50
2019-03-01T01:49:24.151Z,6.07
2019-03-01T01:51:52.616Z,5.07
2019-03-01T01:54:21.103Z,5.37
2019-03-01T01:56:49.591Z,4.83
2019-03-01T01:59:18.150Z,5.57
2019-03-01T02:01:46.638Z,4.73
2019-03-01T02:04:15.095Z,3.80
2019-03-01T02:06:43.651Z,3.20
2019-03-01T02:09:20.995Z,3.40
2019-03-01T02:11:49.927Z,3.27
2019-03-01T02:14:18.469Z,3.10
2019-03-01T02:16:47.090Z,3.20
2019-03-01T02:19:15.551Z,3.10
2019-03-01T02:21:44.012Z,3.50
2019-03-01T02:24:12.567Z,3.10
2019-03-01T02:26:41.122Z,3.00
2019-03-01T02:29:09.695Z,2.77
2019-03-01T02:31:40.016Z,2.73
2019-03-01T02:34:08.572Z,3.53
2019-03-01T02:36:37.108Z,2.87
2019-03-01T02:39:06.430Z,2.90
2019-03-01T02:41:35.038Z,2.93
2019-03-01T02:44:03.605Z,3.10
2019-03-01T02:46:32.159Z,2.70
2019-03-01T02:49:00.719Z,2.57
2019-03-01T02:51:29.255Z,2.80
2019-03-01T02:53:57.811Z,2.90
2019-03-01T02:56:26.372Z,3.00
2019-03-01T02:58:54.916Z,2.97
2019-03-01T03:01:23.543Z,3.03
2019-03-01T03:03:52.012Z,2.60
2019-03-01T03:06:22.199Z,2.70
2019-03-01T03:08:50.686Z,2.90
2019-03-01T03:11:19.215Z,2.87
2019-03-01T03:13:47.676Z,2.67
2019-03-01T03:16:16.235Z,3.20
2019-03-01T03:18:44.699Z,3.30
2019-03-01T03:21:13.332Z,3.17
2019-03-01T03:23:41.867Z,3.20
2019-03-01T03:26:10.330Z,3.03
2019-03-01T03:28:38.885Z,3.23
2019-03-01T03:31:07.420Z,3.17
2019-03-01T03:33:35.981Z,3.43
2019-03-01T03:36:04.591Z,3.47
2019-03-01T03:38:33.148Z,3.93
2019-03-01T03:41:01.671Z,3.90
2019-03-01T03:43:30.170Z,3.80
2019-03-01T03:45:58.706Z,3.90
2019-03-01T03:48:27.308Z,3.80
2019-03-01T03:50:55.867Z,4.57
2019-03-01T03:53:24.482Z,4.17
2019-03-01T03:55:53.282Z,4.50
2019-03-01T03:58:21.809Z,4.37
2019-03-01T04:00:50.509Z,4.67
2019-03-01T04:03:19.290Z,3.63
2019-03-01T04:05:47.771Z,4.27
2019-03-01T04:08:16.232Z,4.53
2019-03-01T04:10:44.689Z,4.73
2019-03-01T04:13:13.256Z,4.77
2019-03-01T04:15:41.729Z,4.73
2019-03-01T04:18:10.251Z,4.50
2019-03-01T04:20:38.744Z,5.20
2019-03-01T04:23:07.209Z,4.63
2019-03-01T04:25:35.971Z,4.83
2019-03-01T04:28:04.568Z,5.30
2019-03-01T04:30:33.111Z,5.10
2019-03-01T04:33:01.609Z,5.40
2019-03-01T04:35:30.146Z,5.17
2019-03-01T04:37:58.638Z,5.07
2019-03-01T04:40:27.176Z,4.93
2019-03-01T04:42:55.855Z,5.50
2019-03-01T04:45:24.318Z,5.33
2019-03-01T04:47:52.778Z,5.47
2019-03-01T04:50:21.347Z,5.03
2019-03-01T04:52:49.952Z,5.17
2019-03-01T04:55:20.793Z,5.27
2019-03-01T04:57:49.359Z,5.10
2019-03-01T05:00:19.963Z,5.93
2019-03-01T05:02:48.531Z,5.30
2019-03-01T05:05:17.530Z,5.13
2019-03-01T05:07:46.205Z,5.77
2019-03-01T05:10:15.583Z,5.50
2019-03-01T05:12:44.419Z,6.10
2019-03-01T05:15:15.491Z,6.30
2019-03-01T05:17:44.258Z,5.60
2019-03-01T05:20:13.335Z,5.90
2019-03-01T05:22:41.996Z,5.73
2019-03-01T05:25:11.330Z,6.30
2019-03-01T05:27:39.932Z,5.70
2019-03-01T05:30:11.131Z,6.40
2019-03-01T05:32:39.691Z,6.07
2019-03-01T05:35:09.130Z,7.00
2019-03-01T05:37:37.666Z,6.43
2019-03-01T05:40:11.920Z,6.50
2019-03-01T05:42:40.532Z,6.43
2019-03-01T05:45:14.732Z,6.57
2019-03-01T05:47:43.319Z,6.10
2019-03-01T05:50:32.674Z,6.33
2019-03-01T05:53:01.158Z,5.93
2019-03-01T05:55:29.683Z,6.37
2019-03-01T05:58:18.197Z,7.13
2019-03-01T06:00:47.371Z,6.47
2019-03-01T06:03:27.786Z,6.33
2019-03-01T06:05:56.355Z,6.43
2019-03-01T06:08:33.731Z,6.10
2019-03-01T06:11:04.239Z,6.60
2019-03-01T06:13:50.823Z,6.40
2019-03-01T06:16:31.419Z,7.00
2019-03-01T06:19:18.127Z,6.10
2019-03-01T06:22:00.000Z,5.87
2019-03-01T06:24:49.638Z,6.80
2019-03-01T06:27:36.163Z,7.17
2019-03-01T06:30:19.704Z,6.73
2019-03-01T06:33:06.499Z,6.83
2019-03-01T06:35:42.036Z,6.97
2019-03-01T06:38:34.166Z,7.30
2019-03-01T06:41:22.250Z,7.63
2019-03-01T06:44:02.558Z,7.07
2019-03-01T06:47:02.471Z,6.63
2019-03-01T06:49:48.942Z,7.07
2019-03-01T06:52:19.154Z,7.63
2019-03-01T06:54:47.720Z,7.20
2019-03-01T06:57:16.187Z,7.53
2019-03-01T06:59:44.851Z,7.50
2019-03-01T07:02:17.504Z,7.47
2019-03-01T07:04:45.991Z,7.30
2019-03-01T07:07:14.550Z,7.30
2019-03-01T07:09:43.039Z,7.03
2019-03-01T07:12:11.570Z,6.90
2019-03-01T07:14:40.059Z,7.10
2019-03-01T07:17:08.715Z,7.10
2019-03-01T07:19:37.351Z,6.93
2019-03-01T07:22:05.911Z,7.00
2019-03-01T07:24:34.389Z,6.97
2019-03-01T07:27:02.935Z,7.60
2019-03-01T07:29:31.426Z,7.30
2019-03-01T07:31:59.934Z,7.60
2019-03-01T07:34:28.480Z,7.40
2019-03-01T07:36:56.944Z,7.13
2019-03-01T07:39:25.519Z,6.63
2019-03-01T07:41:54.058Z,7.37
2019-03-01T07:44:22.527Z,7.07
2019-03-01T07:46:53.255Z,6.97
2019-03-01T07:49:21.227Z,7.47
2019-03-01T07:51:49.699Z,7.63
2019-03-01T07:54:18.264Z,6.33
2019-03-01T07:56:46.859Z,7.10
2019-03-01T07:59:15.367Z,7.43
2019-03-01T08:01:43.857Z,6.60
2019-03-01T08:04:12.419Z,6.33
2019-03-01T08:06:40.959Z,6.20
2019-03-01T08:09:13.270Z,6.60
2019-03-01T08:11:41.836Z,6.60
2019-03-01T08:14:10.454Z,6.97
2019-03-01T08:16:39.311Z,7.00
2019-03-01T08:19:07.919Z,6.53
2019-03-01T08:21:36.390Z,6.60
2019-03-01T08:24:07.758Z,6.90
2019-03-01T08:26:35.239Z,6.40
2019-03-01T08:29:03.923Z,7.07
2019-03-01T08:31:32.541Z,6.20
2019-03-01T08:34:01.141Z,5.63
2019-03-01T08:36:29.627Z,5.17
2019-03-01T08:39:00.980Z,5.50
2019-03-01T08:41:28.303Z,5.33
2019-03-01T08:43:56.763Z,4.83
2019-03-01T08:46:26.799Z,5.30
2019-03-01T08:48:55.475Z,5.10
2019-03-01T08:51:26.587Z,4.83
2019-03-01T08:53:54.230Z,5.13
2019-03-01T08:56:26.126Z,4.93
2019-03-01T08:58:52.892Z,4.90
2019-03-01T09:01:24.219Z,4.30
2019-03-01T09:04:01.632Z,4.50
2019-03-01T09:06:30.105Z,3.63
2019-03-01T09:08:58.679Z,3.67
2019-03-01T09:11:27.211Z,2.90
2019-03-01T09:13:55.755Z,4.60
2019-03-01T09:16:24.381Z,2.53
2019-03-01T09:18:52.938Z,2.00
2019-03-01T09:21:21.471Z,2.17
2019-03-01T09:23:52.219Z,2.20
2019-03-01T09:26:20.763Z,2.20
2019-03-01T09:28:49.447Z,2.40
2019-03-01T09:31:17.983Z,2.47
2019-03-01T09:33:46.545Z,2.13
2019-03-01T09:36:22.439Z,2.43
2019-03-01T09:38:50.931Z,2.10
2019-03-01T09:41:19.475Z,2.10
2019-03-01T09:43:48.063Z,2.00
2019-03-01T09:46:16.687Z,2.30
2019-03-01T09:48:45.558Z,1.90
2019-03-01T09:51:15.988Z,1.40
2019-03-01T09:53:44.674Z,1.40
2019-03-01T09:56:13.807Z,1.37
2019-03-01T09:58:42.578Z,1.20
2019-03-01T10:01:36.428Z,1.90
2019-03-01T10:04:05.175Z,2.50
2019-03-01T10:06:38.143Z,2.77
2019-03-01T10:09:06.968Z,2.80
2019-03-01T10:11:35.462Z,3.20
2019-03-01T10:14:04.022Z,2.30
2019-03-01T10:16:32.587Z,2.30
2019-03-01T10:19:01.051Z,2.70
2019-03-01T10:21:29.535Z,2.70
2019-03-01T10:23:58.071Z,2.83
2019-03-01T10:26:26.560Z,3.10
2019-03-01T10:28:55.051Z,2.83
2019-03-01T10:31:23.535Z,3.50
2019-03-01T10:33:52.128Z,3.90
2019-03-01T10:36:20.687Z,4.40
2019-03-01T10:38:49.194Z,4.83
2019-03-01T10:41:17.663Z,4.63
2019-03-01T10:43:46.200Z,5.07
2019-03-01T10:46:14.687Z,5.03
2019-03-01T10:48:43.160Z,6.00
2019-03-01T10:51:11.725Z,5.70
2019-03-01T10:53:40.259Z,6.23
2019-03-01T10:56:08.751Z,7.43
2019-03-01T10:58:37.421Z,6.63
2019-03-01T11:01:06.218Z,6.60
2019-03-01T11:03:34.687Z,6.77
2019-03-01T11:06:03.413Z,6.30
2019-03-01T11:08:31.947Z,7.63
2019-03-01T11:11:00.415Z,8.47
2019-03-01T11:13:29.145Z,9.60
2019-03-01T11:15:57.822Z,10.77
2019-03-01T11:18:26.352Z,10.80
2019-03-01T11:20:55.048Z,11.07
2019-03-01T11:23:23.654Z,10.97
2019-03-01T11:25:52.271Z,12.03
2019-03-01T11:28:20.832Z,12.67
2019-03-01T11:30:49.299Z,12.63
2019-03-01T11:33:18.116Z,12.93
2019-03-01T11:35:46.747Z,13.10
2019-03-01T11:38:15.216Z,12.33
2019-03-01T11:40:43.707Z,14.17
2019-03-01T11:43:12.257Z,14.50
2019-03-01T11:45:40.955Z,15.30
2019-03-01T11:48:09.583Z,15.07
2019-03-01T11:50:38.171Z,16.60
2019-03-01T11:53:06.711Z,16.50
2019-03-01T11:55:35.188Z,16.50
2019-03-01T11:58:03.756Z,16.97
2019-03-01T12:00:32.367Z,17.37
2019-03-01T12:03:00.940Z,18.57
2019-03-01T12:05:29.412Z,18.43
2019-03-01T12:07:58.144Z,20.07
2019-03-01T12:10:29.253Z,20.23
2019-03-01T12:12:57.837Z,21.10
2019-03-01T12:15:26.499Z,21.43
2019-03-01T12:17:54.993Z,21.83
2019-03-01T12:20:31.075Z,22.90
2019-03-01T12:22:59.646Z,23.03
2019-03-01T12:25:28.367Z,22.47
2019-03-01T12:27:56.838Z,24.87
2019-03-01T12:30:27.193Z,24.43
2019-03-01T12:32:55.832Z,25.23
2019-03-01T12:35:24.371Z,24.37
2019-03-01T12:37:52.927Z,25.97
2019-03-01T12:40:24.571Z,25.53
2019-03-01T12:42:53.111Z,25.80
2019-03-01T12:45:21.679Z,26.27
2019-03-01T12:47:50.406Z,26.77
2019-03-01T12:50:19.043Z,27.53
2019-03-01T12:52:49.337Z,28.27
2019-03-01T12:55:25.191Z,28.43
2019-03-01T12:57:53.835Z,28.60
2019-03-01T13:00:39.643Z,29.00
2019-03-01T13:03:09.073Z,29.40
2019-03-01T13:05:38.451Z,31.07
2019-03-01T13:08:07.200Z,31.03
2019-03-01T13:10:40.368Z,43.50
2019-03-01T13:13:08.553Z,30.90
2019-03-01T13:15:37.694Z,31.30
2019-03-01T13:18:06.176Z,31.67
2019-03-01T13:20:37.203Z,31.63
2019-03-01T13:23:06.208Z,31.90
2019-03-01T13:25:35.064Z,32.87
2019-03-01T13:28:03.683Z,32.27
2019-03-01T13:30:32.728Z,34.10
2019-03-01T13:33:03.660Z,32.67
2019-03-01T13:35:32.332Z,33.00
2019-03-01T13:38:00.869Z,33.30
2019-03-01T13:40:29.492Z,33.77
2019-03-01T13:42:58.026Z,33.10
2019-03-01T13:45:27.030Z,34.23
2019-03-01T13:47:55.562Z,34.17
2019-03-01T13:50:24.134Z,34.60
2019-03-01T13:52:52.816Z,35.00
2019-03-01T13:55:23.670Z,34.30
2019-03-01T13:57:52.563Z,34.33
2019-03-01T14:00:24.223Z,34.57
2019-03-01T14:02:52.875Z,35.70
2019-03-01T14:05:21.417Z,35.03
2019-03-01T14:07:55.130Z,34.77
2019-03-01T14:10:28.728Z,34.10
2019-03-01T14:12:57.286Z,34.43
2019-03-01T14:15:25.831Z,32.80
2019-03-01T14:18:00.633Z,33.20
2019-03-01T14:20:24.824Z,31.93
2019-03-01T14:22:53.400Z,33.03
2019-03-01T14:25:22.087Z,32.23
2019-03-01T14:27:52.793Z,31.00
2019-03-01T14:30:29.156Z,30.23
2019-03-01T14:32:57.758Z,27.93
2019-03-01T14:35:26.835Z,27.43
2019-03-01T14:37:55.984Z,26.90
2019-03-01T14:40:24.547Z,29.23
2019-03-01T14:42:53.096Z,27.50
2019-03-01T14:45:32.423Z,28.13
2019-03-01T14:48:00.899Z,27.67
2019-03-01T14:50:33.620Z,26.57
2019-03-01T14:53:01.090Z,27.07
2019-03-01T14:55:33.070Z,28.20
2019-03-01T14:58:04.979Z,24.90
2019-03-01T15:00:49.617Z,27.77
2019-03-01T15:03:30.691Z,27.53
2019-03-01T15:05:59.515Z,27.23
2019-03-01T15:08:28.065Z,26.80
2019-03-01T15:10:58.279Z,26.40
2019-03-01T15:13:27.858Z,26.40
2019-03-01T15:15:57.270Z,24.73
2019-03-01T15:18:29.000Z,25.13
2019-03-01T15:21:01.418Z,26.17
2019-03-01T15:23:26.512Z,25.77
2019-03-01T15:25:55.047Z,26.60
2019-03-01T15:28:23.620Z,25.47
2019-03-01T15:30:53.033Z,27.00
2019-03-01T15:33:21.644Z,26.10
2019-03-01T15:35:50.299Z,27.30
2019-03-01T15:38:18.771Z,25.60
2019-03-01T15:40:47.351Z,25.67
2019-03-01T15:43:15.955Z,25.00
2019-03-01T15:45:44.503Z,24.60
2019-03-01T15:48:13.043Z,25.63
2019-03-01T15:50:41.543Z,23.83
2019-03-01T15:53:10.102Z,26.47
2019-03-01T15:55:38.651Z,24.50
2019-03-01T15:58:07.150Z,24.13
2019-03-01T16:00:35.763Z,24.57
2019-03-01T16:03:05.091Z,25.63
2019-03-01T16:05:34.279Z,25.30
2019-03-01T16:08:05.535Z,24.67
2019-03-01T16:10:36.038Z,26.23
2019-03-01T16:13:04.491Z,24.27
2019-03-01T16:15:34.944Z,24.43
2019-03-01T16:18:03.271Z,25.10
2019-03-01T16:20:31.880Z,25.40
2019-03-01T16:23:00.447Z,26.30
2019-03-01T16:25:29.016Z,26.43
2019-03-01T16:27:57.487Z,25.70
2019-03-01T16:30:25.979Z,25.10
2019-03-01T16:32:54.474Z,27.23
2019-03-01T16:35:22.943Z,27.63
2019-03-01T16:37:53.151Z,26.33
2019-03-01T16:40:21.720Z,25.80
2019-03-01T16:42:54.321Z,26.27
2019-03-01T16:45:21.000Z,25.27
2019-03-01T16:47:50.483Z,25.60
2019-03-01T16:50:20.199Z,25.13
2019-03-01T16:52:48.911Z,25.40
2019-03-01T16:55:19.967Z,25.90
2019-03-01T16:57:48.690Z,23.90
2019-03-01T17:00:20.955Z,23.70
2019-03-01T17:03:17.959Z,23.27
2019-03-01T17:05:44.859Z,23.57
2019-03-01T17:08:13.403Z,23.17
2019-03-01T17:10:41.963Z,22.07
2019-03-01T17:13:10.496Z,21.87
2019-03-01T17:15:39.126Z,23.27
2019-03-01T17:18:11.300Z,21.40
2019-03-01T17:20:38.600Z,21.73
2019-03-01T17:23:07.283Z,21.50
2019-03-01T17:25:35.754Z,19.93
2019-03-01T17:28:04.518Z,21.17
2019-03-01T17:30:33.127Z,19.30
2019-03-01T17:33:01.851Z,20.57
2019-03-01T17:35:30.382Z,19.40
2019-03-01T17:37:58.871Z,19.57
2019-03-01T17:40:29.225Z,18.27
2019-03-01T17:42:57.630Z,17.60
2019-03-01T17:45:26.840Z,16.67
2019-03-01T17:47:55.605Z,17.13
2019-03-01T17:50:24.195Z,16.80
2019-03-01T17:52:52.732Z,16.73
2019-03-01T17:55:25.870Z,15.80
2019-03-01T17:57:54.351Z,16.27
2019-03-01T18:00:41.234Z,14.37
2019-03-01T18:03:09.699Z,13.70
2019-03-01T18:05:40.663Z,13.73
2019-03-01T18:08:08.486Z,13.93
2019-03-01T18:10:37.119Z,12.13
2019-03-01T18:13:05.742Z,12.77
2019-03-01T18:15:34.383Z,12.00
2019-03-01T18:18:02.919Z,12.30
2019-03-01T18:20:33.978Z,13.13
2019-03-01T18:23:02.179Z,12.57
2019-03-01T18:25:31.694Z,13.57
2019-03-01T18:28:00.234Z,13.20
2019-03-01T18:30:34.622Z,12.77
2019-03-01T18:33:03.119Z,13.70
2019-03-01T18:35:31.655Z,12.33
2019-03-01T18:38:00.123Z,12.83
2019-03-01T18:40:28.685Z,10.40
2019-03-01T18:42:57.166Z,9.53
2019-03-01T18:45:31.230Z,11.00
2019-03-01T18:47:59.731Z,10.37
2019-03-01T18:50:38.671Z,10.10
2019-03-01T18:53:07.175Z,10.87
2019-03-01T18:55:35.727Z,9.00
2019-03-01T18:58:05.343Z,7.87
2019-03-01T19:00:42.754Z,8.10
2019-03-01T19:03:11.294Z,8.67
2019-03-01T19:05:41.188Z,8.57
2019-03-01T19:08:09.937Z,8.03
2019-03-01T19:10:38.645Z,8.30
2019-03-01T19:13:07.456Z,8.00
2019-03-01T19:15:36.127Z,8.03
2019-03-01T19:18:05.868Z,7.40
2019-03-01T19:20:42.752Z,7.53
2019-03-01T19:23:11.215Z,8.73
2019-03-01T19:25:39.748Z,8.27
2019-03-01T19:28:08.303Z,8.57
2019-03-01T19:30:36.911Z,8.93
2019-03-01T19:33:05.466Z,9.13
2019-03-01T19:35:34.101Z,8.50
2019-03-01T19:38:02.658Z,8.37
2019-03-01T19:40:31.263Z,8.80
2019-03-01T19:42:59.860Z,7.83
2019-03-01T19:45:28.535Z,9.60
2019-03-01T19:48:01.644Z,8.97
2019-03-01T19:50:28.725Z,9.77
2019-03-01T19:52:57.189Z,9.67
2019-03-01T19:55:25.813Z,10.13
2019-03-01T19:57:54.542Z,11.10
2019-03-01T20:00:30.280Z,11.27
2019-03-01T20:02:58.986Z,14.57
2019-03-01T20:05:35.595Z,14.80
2019-03-01T20:08:04.329Z,15.60
2019-03-01T20:10:32.911Z,15.60
2019-03-01T20:13:01.542Z,14.70
2019-03-01T20:15:31.279Z,14.97
2019-03-01T20:17:59.943Z,14.17
2019-03-01T20:20:29.873Z,13.77
2019-03-01T20:23:00.217Z,13.90
2019-03-01T20:25:28.973Z,14.33
2019-03-01T20:27:57.439Z,13.53
2019-03-01T20:30:31.259Z,14.40
2019-03-01T20:32:59.871Z,14.43
2019-03-01T20:35:28.353Z,13.97
2019-03-01T20:38:00.108Z,13.40
2019-03-01T20:40:28.333Z,13.67
2019-03-01T20:43:00.182Z,13.87
2019-03-01T20:45:30.035Z,13.47
2019-03-01T20:47:58.844Z,14.57
2019-03-01T20:50:27.379Z,13.60
2019-03-01T20:52:55.847Z,14.07
2019-03-01T20:55:24.495Z,14.37
2019-03-01T20:57:53.106Z,14.43
2019-03-01T21:00:26.164Z,14.57
2019-03-01T21:02:53.300Z,14.00
2019-03-01T21:05:24.962Z,14.93
2019-03-01T21:07:53.804Z,15.47
2019-03-01T21:10:27.023Z,15.17
2019-03-01T21:12:55.562Z,19.93
2019-03-01T21:15:24.403Z,15.60
2019-03-01T21:17:56.809Z,15.13
2019-03-01T21:20:23.130Z,15.90
2019-03-01T21:22:51.692Z,15.53
2019-03-01T21:25:24.931Z,15.97
2019-03-01T21:27:53.471Z,15.40
2019-03-01T21:30:32.243Z,16.70
2019-03-01T21:33:00.814Z,17.40
2019-03-01T21:35:29.286Z,16.70
2019-03-01T21:37:57.781Z,16.43
2019-03-01T21:40:26.318Z,15.57
2019-03-01T21:42:57.283Z,16.77
2019-03-01T21:45:25.414Z,15.97
2019-03-01T21:47:53.983Z,15.77
2019-03-01T21:50:22.524Z,17.37
2019-03-01T21:52:51.166Z,15.77
2019-03-01T21:55:28.565Z,17.00
2019-03-01T21:57:57.608Z,17.10
2019-03-01T22:00:29.478Z,17.70
2019-03-01T22:02:57.574Z,16.07
2019-03-01T22:05:26.141Z,16.83
2019-03-01T22:07:54.675Z,16.10
2019-03-01T22:10:23.310Z,16.90
2019-03-01T22:12:51.786Z,17.63
2019-03-01T22:15:25.563Z,16.90
2019-03-01T22:17:53.262Z,17.63
2019-03-01T22:20:22.490Z,17.33
2019-03-01T22:22:51.171Z,17.10
2019-03-01T22:25:19.706Z,17.77
2019-03-01T22:27:48.266Z,17.07
2019-03-01T22:30:25.305Z,17.07
2019-03-01T22:32:53.962Z,17.17
2019-03-01T22:35:22.602Z,16.73
2019-03-01T22:37:51.099Z,17.80
2019-03-01T22:40:19.561Z,18.43
2019-03-01T22:42:49.739Z,17.73
2019-03-01T22:45:19.087Z,17.60
2019-03-01T22:47:47.580Z,17.47
2019-03-01T22:50:17.355Z,17.87
2019-03-01T22:52:45.931Z,17.13
2019-03-01T22:55:15.938Z,18.43
2019-03-01T22:57:45.061Z,16.23
2019-03-01T23:00:50.055Z,17.40
2019-03-01T23:03:20.250Z,17.40
2019-03-01T23:05:49.039Z,17.07
2019-03-01T23:08:17.746Z,18.03
2019-03-01T23:10:46.254Z,16.97
2019-03-01T23:13:17.151Z,16.17
2019-03-01T23:15:45.011Z,17.73
2019-03-01T23:18:13.499Z,19.67
2019-03-01T23:20:42.391Z,16.60
2019-03-01T23:23:11.873Z,16.37
2019-03-01T23:25:42.769Z,15.93
2019-03-01T23:28:10.723Z,16.07
2019-03-01T23:30:39.286Z,16.40
2019-03-01T23:33:07.775Z,16.20
2019-03-01T23:35:36.276Z,16.10
2019-03-01T23:38:04.815Z,14.93
2019-03-01T23:40:35.886Z,14.67
2019-03-01T23:43:03.515Z,14.90
2019-03-01T23:45:32.031Z,15.50
2019-03-01T23:48:00.524Z,15.00
2019-03-01T23:50:31.553Z,14.87
2019-03-01T23:53:00.093Z,15.00
2019-03-01T23:55:28.704Z,15.10
2019-03-01T23:58:05.690Z,14.63
